createdAt,value
2022-09-10T00:01:36.641Z,100678.94
2022-09-10T00:04:10.532Z,100690.13
2022-09-10T00:06:38.768Z,100685.84
2022-09-10T00:09:09.157Z,100683.72
2022-09-10T00:11:38.600Z,100689.22
2022-09-10T00:14:08.973Z,100692.66
2022-09-10T00:16:36.869Z,100693.16
2022-09-10T00:19:06.581Z,100694.34
2022-09-10T00:21:35.643Z,100689.28
2022-09-10T00:24:05.516Z,100686.19
2022-09-10T00:26:39.265Z,100686.69
2022-09-10T00:29:10.792Z,100678.84
2022-09-10T00:31:39.937Z,100686.09
2022-09-10T00:34:09.104Z,100685.41
2022-09-10T00:36:40.770Z,100687.84
2022-09-10T00:39:11.132Z,100676.75
2022-09-10T00:41:42.685Z,100679.44
2022-09-10T00:44:58.447Z,100686.50
2022-09-10T00:47:33.176Z,100675.09
2022-09-10T00:50:13.680Z,100681.66
2022-09-10T00:52:42.719Z,100674.63
2022-09-10T00:55:12.651Z,100668.97
2022-09-10T00:57:43.954Z,100666.31
2022-09-10T01:00:15.989Z,100671.03
2022-09-10T01:02:44.440Z,100673.28
2022-09-10T01:05:12.962Z,100672.28
2022-09-10T01:07:40.892Z,100683.00
2022-09-10T01:10:18.006Z,100680.53
2022-09-10T01:13:21.697Z,100682.91
2022-09-10T01:16:03.201Z,100684.91
2022-09-10T01:18:47.068Z,100683.31
2022-09-10T01:21:30.984Z,100676.84
2022-09-10T01:24:47.880Z,100682.28
2022-09-10T01:27:45.267Z,100673.59
2022-09-10T01:30:19.231Z,100687.38
2022-09-10T01:33:04.573Z,100688.56
2022-09-10T01:35:43.104Z,100686.25
2022-09-10T01:38:21.542Z,100692.22
2022-09-10T01:40:49.557Z,100685.16
2022-09-10T01:43:18.701Z,100676.28
2022-09-10T01:46:01.952Z,100681.88
2022-09-10T01:49:14.594Z,100681.91
2022-09-10T01:52:06.968Z,100688.22
2022-09-10T01:55:03.196Z,100686.50
2022-09-10T01:57:44.884Z,100689.47
2022-09-10T02:00:18.729Z,100697.56
2022-09-10T02:02:57.713Z,100684.94
2022-09-10T02:05:28.787Z,100688.03
2022-09-10T02:08:03.248Z,100693.53
2022-09-10T02:10:31.683Z,100682.13
2022-09-10T02:12:59.805Z,100681.88
2022-09-10T02:15:32.517Z,100681.88
2022-09-10T02:18:01.299Z,100686.28
2022-09-10T02:20:31.221Z,100687.91
2022-09-10T02:23:01.029Z,100682.78
2022-09-10T02:25:36.464Z,100678.75
2022-09-10T02:28:05.331Z,100683.03
2022-09-10T02:30:34.522Z,100691.00
2022-09-10T02:33:02.289Z,100692.78
2022-09-10T02:35:31.120Z,100697.56
2022-09-10T02:37:59.384Z,100698.66
2022-09-10T02:40:31.777Z,100708.25
2022-09-10T02:42:59.626Z,100703.97
2022-09-10T02:45:27.918Z,100703.22
2022-09-10T02:47:57.037Z,100695.22
2022-09-10T02:50:25.146Z,100699.16
2022-09-10T02:52:53.775Z,100695.84
2022-09-10T02:55:21.559Z,100706.88
2022-09-10T02:57:49.354Z,100707.88
2022-09-10T03:00:17.280Z,100704.19
2022-09-10T03:02:46.612Z,100703.34
2022-09-10T03:05:16.004Z,100705.34
2022-09-10T03:07:44.837Z,100699.81
2022-09-10T03:10:12.729Z,100703.50
2022-09-10T03:12:40.887Z,100699.53
2022-09-10T03:15:10.604Z,100699.16
2022-09-10T03:17:38.336Z,100704.38
2022-09-10T03:20:08.389Z,100699.38
2022-09-10T03:22:38.287Z,100701.28
2022-09-10T03:25:08.042Z,100694.44
2022-09-10T03:27:35.985Z,100699.13
2022-09-10T03:30:04.010Z,100698.25
2022-09-10T03:32:32.112Z,100698.97
2022-09-10T03:35:00.297Z,100693.75
2022-09-10T03:37:28.448Z,100692.84
2022-09-10T03:39:57.986Z,100700.50
2022-09-10T03:42:26.073Z,100694.47
2022-09-10T03:44:54.065Z,100687.63
2022-09-10T03:47:21.868Z,100690.94
2022-09-10T03:49:50.706Z,100688.53
2022-09-10T03:52:19.180Z,100697.00
2022-09-10T03:54:46.923Z,100686.34
2022-09-10T03:57:16.041Z,100687.69
2022-09-10T03:59:43.806Z,100687.41
2022-09-10T04:02:11.648Z,100680.94
2022-09-10T04:04:39.493Z,100692.63
2022-09-10T04:07:08.235Z,100686.94
2022-09-10T04:09:36.010Z,100680.94
2022-09-10T04:12:04.641Z,100703.53
2022-09-10T04:14:34.352Z,100701.91
2022-09-10T04:17:02.819Z,100695.41
2022-09-10T04:19:30.630Z,100702.75
2022-09-10T04:21:58.380Z,100697.00
2022-09-10T04:24:26.166Z,100698.63
2022-09-10T04:26:53.923Z,100698.72
2022-09-10T04:29:23.002Z,100695.66
2022-09-10T04:31:52.402Z,100693.06
2022-09-10T04:34:20.216Z,100693.09
2022-09-10T04:36:47.960Z,100705.44
2022-09-10T04:39:15.735Z,100698.25
2022-09-10T04:41:44.004Z,100695.44
2022-09-10T04:44:11.795Z,100698.31
2022-09-10T04:46:41.258Z,100699.25
2022-09-10T04:49:11.019Z,100705.72
2022-09-10T04:51:38.791Z,100699.84
2022-09-10T04:54:06.743Z,100702.38
2022-09-10T04:56:34.756Z,100703.28
2022-09-10T04:59:02.533Z,100704.44
2022-09-10T05:01:31.253Z,100700.94
2022-09-10T05:03:59.053Z,100706.13
2022-09-10T05:06:28.161Z,100708.13
2022-09-10T05:08:56.099Z,100706.16
2022-09-10T05:11:25.395Z,100705.91
2022-09-10T05:13:53.371Z,100710.63
2022-09-10T05:16:21.934Z,100702.63
2022-09-10T05:18:49.763Z,100705.78
2022-09-10T05:21:18.453Z,100706.28
2022-09-10T05:23:47.912Z,100712.47
2022-09-10T05:26:15.694Z,100698.06
2022-09-10T05:28:43.586Z,100709.81
2022-09-10T05:31:11.991Z,100707.09
2022-09-10T05:33:40.739Z,100708.59
2022-09-10T05:36:10.729Z,100709.75
2022-09-10T05:38:40.081Z,100707.53
2022-09-10T05:41:12.208Z,100714.31
2022-09-10T05:43:41.911Z,100703.69
2022-09-10T05:46:10.060Z,100707.69
2022-09-10T05:48:41.576Z,100710.56
2022-09-10T05:51:09.971Z,100708.38
2022-09-10T05:53:38.228Z,100714.69
2022-09-10T05:56:07.337Z,100717.63
2022-09-10T05:58:36.495Z,100713.97
2022-09-10T06:01:04.499Z,100716.63
2022-09-10T06:03:32.328Z,100716.56
2022-09-10T06:06:00.365Z,100711.47
2022-09-10T06:08:28.124Z,100714.94
2022-09-10T06:10:58.073Z,100713.53
2022-09-10T06:13:26.243Z,100709.06
2022-09-10T06:15:55.505Z,100719.25
2022-09-10T06:18:23.289Z,100723.22
2022-09-10T06:20:52.050Z,100725.97
2022-09-10T06:23:19.911Z,100728.00
2022-09-10T06:25:48.343Z,100737.34
2022-09-10T06:28:16.113Z,100731.72
2022-09-10T06:30:43.886Z,100736.66
2022-09-10T06:33:13.230Z,100745.19
2022-09-10T06:35:41.017Z,100745.28
2022-09-10T06:38:08.785Z,100741.88
2022-09-10T06:40:38.069Z,100746.13
2022-09-10T06:43:06.052Z,100743.25
2022-09-10T06:45:33.916Z,100741.22
2022-09-10T06:50:56.801Z,100742.16
2022-09-10T06:53:26.724Z,100740.38
2022-09-10T06:55:55.961Z,100737.41
2022-09-10T06:58:24.953Z,100744.25
2022-09-10T07:00:53.086Z,100740.59
2022-09-10T07:03:22.862Z,100744.44
2022-09-10T07:05:53.372Z,100740.53
2022-09-10T07:08:22.521Z,100745.81
2022-09-10T07:10:50.402Z,100736.28
2022-09-10T07:13:18.230Z,100735.81
2022-09-10T07:15:47.047Z,100728.19
2022-09-10T07:18:15.382Z,100733.19
2022-09-10T07:20:44.286Z,100734.44
2022-09-10T07:23:13.216Z,100723.47
2022-09-10T07:25:43.236Z,100731.06
2022-09-10T07:28:15.773Z,100725.00
2022-09-10T07:30:44.878Z,100729.75
2022-09-10T07:33:12.673Z,100736.38
2022-09-10T07:35:40.965Z,100725.66
2022-09-10T07:38:16.427Z,100725.88
2022-09-10T07:40:45.516Z,100731.78
2022-09-10T07:43:13.329Z,100730.06
2022-09-10T07:45:41.568Z,100740.69
2022-09-10T07:48:09.428Z,100736.78
2022-09-10T07:50:37.268Z,100737.38
2022-09-10T07:53:05.326Z,100729.94
2022-09-10T07:55:33.093Z,100732.66
2022-09-10T07:58:02.212Z,100740.91
2022-09-10T08:00:30.927Z,100738.56
2022-09-10T08:02:58.914Z,100739.47
2022-09-10T08:05:28.807Z,100738.66
2022-09-10T08:07:57.121Z,100741.16
2022-09-10T08:10:24.912Z,100746.25
2022-09-10T08:12:52.704Z,100745.66
2022-09-10T08:15:23.315Z,100743.63
2022-09-10T08:17:51.135Z,100746.59
2022-09-10T08:20:19.160Z,100744.41
2022-09-10T08:22:50.221Z,100745.63
2022-09-10T08:25:20.937Z,100747.06
2022-09-10T08:27:48.779Z,100744.91
2022-09-10T08:30:16.884Z,100752.00
2022-09-10T08:32:45.993Z,100750.47
2022-09-10T08:35:14.541Z,100749.63
2022-09-10T08:37:42.637Z,100746.41
2022-09-10T08:40:13.336Z,100746.31
2022-09-10T08:42:47.012Z,100747.56
2022-09-10T08:45:19.750Z,100753.25
2022-09-10T08:47:59.605Z,100755.84
2022-09-10T08:50:42.433Z,100755.53
2022-09-10T08:53:26.763Z,100747.38
2022-09-10T08:55:59.926Z,100751.00
2022-09-10T08:58:40.697Z,100757.56
2022-09-10T09:01:15.909Z,100752.44
2022-09-10T09:03:48.584Z,100757.66
2022-09-10T09:06:30.183Z,100758.69
2022-09-10T09:09:00.870Z,100762.94
2022-09-10T09:11:42.149Z,100760.31
2022-09-10T09:14:25.888Z,100753.16
2022-09-10T09:17:17.734Z,100752.16
2022-09-10T09:20:01.612Z,100750.19
2022-09-10T09:22:45.758Z,100754.22
2022-09-10T09:25:27.172Z,100749.56
2022-09-10T09:27:57.142Z,100752.91
2022-09-10T09:30:32.017Z,100750.69
2022-09-10T09:33:12.223Z,100747.91
2022-09-10T09:35:48.536Z,100745.88
2022-09-10T09:38:23.722Z,100749.75
2022-09-10T09:40:56.252Z,100745.13
2022-09-10T09:43:38.478Z,100747.38
2022-09-10T09:46:16.067Z,100744.47
2022-09-10T09:48:45.046Z,100741.41
2022-09-10T09:51:20.958Z,100742.47
2022-09-10T09:54:01.031Z,100753.38
2022-09-10T09:56:49.822Z,100745.66
2022-09-10T09:59:29.159Z,100738.91
2022-09-10T10:02:05.986Z,100734.88
2022-09-10T10:04:36.220Z,100730.38
2022-09-10T10:07:08.521Z,100739.56
2022-09-10T10:09:43.557Z,100731.66
2022-09-10T10:12:21.124Z,100733.09
2022-09-10T10:14:49.861Z,100728.03
2022-09-10T10:17:37.974Z,100726.72
2022-09-10T10:20:13.483Z,100724.78
2022-09-10T10:22:45.121Z,100716.63
2022-09-10T10:25:38.189Z,100718.88
2022-09-10T10:28:20.134Z,100717.16
2022-09-10T10:30:54.457Z,100724.31
2022-09-10T10:33:29.761Z,100717.91
2022-09-10T10:36:14.709Z,100718.19
2022-09-10T10:38:55.625Z,100716.28
2022-09-10T10:42:00.271Z,100713.31
2022-09-10T10:44:48.061Z,100719.16
2022-09-10T10:47:33.990Z,100703.41
2022-09-10T10:50:22.007Z,100702.84
2022-09-10T10:53:12.375Z,100707.00
2022-09-10T10:55:48.101Z,100715.81
2022-09-10T10:58:39.025Z,100720.75
2022-09-10T11:01:19.014Z,100714.28
2022-09-10T11:04:00.589Z,100702.63
2022-09-10T11:06:35.908Z,100721.13
2022-09-10T11:09:13.556Z,100717.50
2022-09-10T11:11:57.371Z,100720.00
2022-09-10T11:14:36.831Z,100712.94
2022-09-10T11:17:13.311Z,100705.53
2022-09-10T11:20:00.546Z,100706.41
2022-09-10T11:22:45.277Z,100703.56
2022-09-10T11:25:26.292Z,100707.00
2022-09-10T11:28:05.183Z,100703.63
2022-09-10T11:30:35.806Z,100705.44
2022-09-10T11:33:15.949Z,100707.53
2022-09-10T11:35:52.125Z,100708.41
2022-09-10T11:38:25.375Z,100708.78
2022-09-10T11:41:07.672Z,100706.59
2022-09-10T11:43:46.390Z,100700.47
2022-09-10T11:46:21.230Z,100705.09
2022-09-10T11:48:55.918Z,100703.25
2022-09-10T11:51:30.518Z,100708.53
2022-09-10T11:53:58.917Z,100701.56
2022-09-10T11:56:52.871Z,100703.16
2022-09-10T11:59:46.123Z,100692.38
2022-09-10T12:03:02.648Z,100692.91
2022-09-10T12:05:43.779Z,100688.72
2022-09-10T12:08:29.608Z,100690.53
2022-09-10T12:11:15.221Z,100687.19
2022-09-10T12:13:47.191Z,100681.09
2022-09-10T12:16:30.282Z,100687.25
2022-09-10T12:19:02.972Z,100688.63
2022-09-10T12:21:37.520Z,100678.56
2022-09-10T12:24:26.658Z,100672.19
2022-09-10T12:26:56.109Z,100678.66
2022-09-10T12:29:33.181Z,100676.66
2022-09-10T12:32:32.355Z,100672.84
2022-09-10T12:35:46.763Z,100664.66
2022-09-10T12:38:56.620Z,100668.06
2022-09-10T12:41:57.889Z,100665.34
2022-09-10T12:44:47.072Z,100658.81
2022-09-10T12:47:41.078Z,100662.75
2022-09-10T12:50:24.583Z,100667.09
2022-09-10T12:53:34.367Z,100653.41
2022-09-10T12:56:19.323Z,100649.94
2022-09-10T12:59:08.190Z,100659.09
2022-09-10T13:01:44.104Z,100648.16
2022-09-10T13:04:29.394Z,100650.75
2022-09-10T13:07:01.841Z,100657.22
2022-09-10T13:09:34.494Z,100654.97
2022-09-10T13:12:17.402Z,100641.75
2022-09-10T13:14:50.735Z,100640.75
2022-09-10T13:18:12.462Z,100636.72
2022-09-10T13:20:41.580Z,100632.38
2022-09-10T13:23:23.338Z,100628.50
2022-09-10T13:25:52.802Z,100629.06
2022-09-10T13:29:02.839Z,100632.06
2022-09-10T13:31:35.802Z,100631.31
2022-09-10T13:34:52.797Z,100634.34
2022-09-10T13:37:47.605Z,100632.66
2022-09-10T13:41:06.413Z,100632.81
2022-09-10T13:44:07.907Z,100627.63
2022-09-10T13:46:42.537Z,100622.44
2022-09-10T13:49:19.111Z,100624.78
2022-09-10T13:51:53.022Z,100628.34
2022-09-10T13:54:35.512Z,100640.25
2022-09-10T13:57:13.196Z,100633.84
2022-09-10T13:59:43.768Z,100639.19
2022-09-10T14:02:11.571Z,100642.97
2022-09-10T14:04:44.968Z,100637.41
2022-09-10T14:07:20.270Z,100639.84
2022-09-10T14:09:56.721Z,100634.66
2022-09-10T14:12:29.488Z,100647.41
2022-09-10T14:15:04.452Z,100637.88
2022-09-10T14:17:41.357Z,100642.63
2022-09-10T14:20:24.274Z,100645.56
2022-09-10T14:23:00.149Z,100648.69
2022-09-10T14:25:33.682Z,100652.44
2022-09-10T14:28:28.916Z,100652.28
2022-09-10T14:31:29.889Z,100653.69
2022-09-10T14:34:00.168Z,100662.91
2022-09-10T14:36:35.360Z,100661.31
2022-09-10T14:39:07.866Z,100665.81
2022-09-10T14:41:37.770Z,100660.72
2022-09-10T14:44:30.453Z,100657.22
2022-09-10T14:47:00.944Z,100654.59
2022-09-10T14:49:32.457Z,100652.81
2022-09-10T14:52:01.986Z,100646.06
2022-09-10T14:54:32.692Z,100645.25
2022-09-10T14:57:06.558Z,100648.41
2022-09-10T14:59:38.575Z,100643.00
2022-09-10T15:02:17.089Z,100637.13
2022-09-10T15:04:45.113Z,100637.97
2022-09-10T15:07:13.804Z,100632.22
2022-09-10T15:09:42.139Z,100642.78
2022-09-10T15:12:25.728Z,100644.34
2022-09-10T15:14:53.688Z,100647.31
2022-09-10T15:17:21.912Z,100653.41
2022-09-10T15:19:49.884Z,100651.22
2022-09-10T15:22:23.330Z,100658.91
2022-09-10T15:25:09.989Z,100661.81
2022-09-10T15:27:39.629Z,100656.97
2022-09-10T15:30:08.932Z,100660.69
2022-09-10T15:32:36.720Z,100653.91
2022-09-10T15:35:05.682Z,100643.03
2022-09-10T15:37:33.662Z,100650.84
2022-09-10T15:40:01.524Z,100644.13
2022-09-10T15:42:29.409Z,100646.06
2022-09-10T15:44:58.574Z,100654.72
2022-09-10T15:47:27.029Z,100643.53
2022-09-10T15:49:54.889Z,100644.22
2022-09-10T15:52:22.675Z,100654.13
2022-09-10T15:54:50.531Z,100654.28
2022-09-10T15:57:18.388Z,100656.34
2022-09-10T15:59:47.162Z,100659.22
2022-09-10T16:02:16.512Z,100656.72
2022-09-10T16:04:44.329Z,100664.50
2022-09-10T16:07:13.744Z,100656.84
2022-09-10T16:09:42.387Z,100652.69
2022-09-10T16:12:10.209Z,100657.34
2022-09-10T16:14:38.198Z,100654.41
2022-09-10T16:17:10.520Z,100662.91
2022-09-10T16:19:39.798Z,100663.53
2022-09-10T16:22:08.094Z,100662.31
2022-09-10T16:24:36.015Z,100658.16
2022-09-10T16:27:03.999Z,100663.19
2022-09-10T16:29:32.592Z,100658.28
2022-09-10T16:32:00.709Z,100660.63
2022-09-10T16:34:28.824Z,100663.66
2022-09-10T16:36:57.998Z,100674.78
2022-09-10T16:39:26.068Z,100678.50
2022-09-10T16:41:56.508Z,100685.91
2022-09-10T16:44:24.726Z,100680.34
2022-09-10T16:46:52.551Z,100689.28
2022-09-10T16:49:20.575Z,100684.78
2022-09-10T16:51:49.966Z,100691.41
2022-09-10T16:54:21.084Z,100697.28
2022-09-10T16:56:50.212Z,100697.06
2022-09-10T16:59:21.383Z,100696.34
2022-09-10T17:01:51.799Z,100697.34
2022-09-10T17:04:28.358Z,100695.44
2022-09-10T17:06:58.029Z,100692.34
2022-09-10T17:09:27.568Z,100704.38
2022-09-10T17:11:55.901Z,100684.59
2022-09-10T17:14:24.460Z,100693.69
2022-09-10T17:16:53.166Z,100685.16
2022-09-10T17:19:23.984Z,100690.94
2022-09-10T17:21:55.278Z,100703.34
2022-09-10T17:24:26.501Z,100698.44
2022-09-10T17:26:56.210Z,100701.94
2022-09-10T17:29:26.709Z,100699.94
2022-09-10T17:31:57.298Z,100711.59
2022-09-10T17:34:28.228Z,100719.09
2022-09-10T17:36:56.163Z,100722.88
2022-09-10T17:39:28.096Z,100718.72
2022-09-10T17:41:58.026Z,100728.41
2022-09-10T17:44:26.915Z,100728.63
2022-09-10T17:46:56.993Z,100731.50
2022-09-10T17:49:25.389Z,100738.13
2022-09-10T17:51:54.141Z,100730.63
2022-09-10T17:54:23.515Z,100728.97
2022-09-10T17:56:51.787Z,100730.72
2022-09-10T17:59:21.922Z,100735.81
2022-09-10T18:01:49.707Z,100742.75
2022-09-10T18:04:19.468Z,100746.59
2022-09-10T18:06:52.022Z,100747.56
2022-09-10T18:09:23.592Z,100735.47
2022-09-10T18:11:51.373Z,100746.91
2022-09-10T18:14:21.881Z,100743.53
2022-09-10T18:16:51.361Z,100745.47
2022-09-10T18:19:19.910Z,100754.34
2022-09-10T18:21:49.342Z,100752.13
2022-09-10T18:24:22.399Z,100759.25
2022-09-10T18:26:53.230Z,100757.22
2022-09-10T18:29:25.537Z,100760.81
2022-09-10T18:31:56.876Z,100763.16
2022-09-10T18:34:27.593Z,100760.75
2022-09-10T18:37:00.932Z,100760.47
2022-09-10T18:39:31.598Z,100755.00
2022-09-10T18:42:00.922Z,100760.06
2022-09-10T18:44:34.129Z,100763.38
2022-09-10T18:47:02.254Z,100761.13
2022-09-10T18:49:30.234Z,100765.78
2022-09-10T18:51:58.527Z,100762.41
2022-09-10T18:54:29.070Z,100768.03
2022-09-10T18:56:58.185Z,100770.75
2022-09-10T18:59:27.370Z,100765.63
2022-09-10T19:01:56.879Z,100757.56
2022-09-10T19:04:28.009Z,100759.16
2022-09-10T19:06:57.274Z,100754.81
2022-09-10T19:09:26.960Z,100756.69
2022-09-10T19:11:57.591Z,100748.00
2022-09-10T19:14:29.244Z,100753.31
2022-09-10T19:17:00.501Z,100747.47
2022-09-10T19:19:31.896Z,100746.06
2022-09-10T19:22:04.593Z,100746.38
2022-09-10T19:24:53.305Z,100740.06
2022-09-10T19:27:21.134Z,100738.19
2022-09-10T19:29:49.782Z,100743.13
2022-09-10T19:32:19.742Z,100748.06
2022-09-10T19:34:50.925Z,100744.16
2022-09-10T19:37:19.594Z,100750.34
2022-09-10T19:39:47.720Z,100748.38
2022-09-10T19:42:16.459Z,100746.50
2022-09-10T19:44:44.608Z,100748.06
2022-09-10T19:47:12.691Z,100743.38
2022-09-10T19:49:41.791Z,100745.78
2022-09-10T19:52:11.044Z,100739.47
2022-09-10T19:54:38.986Z,100746.09
2022-09-10T19:57:06.798Z,100734.72
2022-09-10T19:59:35.539Z,100739.56
2022-09-10T20:02:03.432Z,100745.03
2022-09-10T20:04:31.376Z,100752.94
2022-09-10T20:07:01.263Z,100751.34
2022-09-10T20:09:29.096Z,100744.53
2022-09-10T20:11:59.007Z,100753.38
2022-09-10T20:14:26.887Z,100756.59
2022-09-10T20:16:57.764Z,100751.88
2022-09-10T20:19:29.039Z,100750.53
2022-09-10T20:21:56.925Z,100759.56
2022-09-10T20:24:28.450Z,100766.13
2022-09-10T20:26:57.163Z,100762.78
2022-09-10T20:29:25.555Z,100760.38
2022-09-10T20:31:55.976Z,100756.44
2022-09-10T20:34:26.635Z,100761.53
2022-09-10T20:36:54.485Z,100763.78
2022-09-10T20:39:25.848Z,100756.97
2022-09-10T20:41:55.815Z,100764.97
2022-09-10T20:44:23.826Z,100764.78
2022-09-10T20:46:51.741Z,100763.94
2022-09-10T20:49:19.685Z,100758.81
2022-09-10T20:51:48.334Z,100771.91
2022-09-10T20:54:19.871Z,100765.50
2022-09-10T20:56:49.715Z,100771.47
2022-09-10T20:59:19.178Z,100775.44
2022-09-10T21:01:51.371Z,100770.13
2022-09-10T21:04:19.916Z,100768.56
2022-09-10T21:06:47.856Z,100773.97
2022-09-10T21:09:15.849Z,100766.75
2022-09-10T21:11:43.641Z,100761.84
2022-09-10T21:14:14.336Z,100763.78
2022-09-10T21:16:45.847Z,100768.28
2022-09-10T21:19:16.292Z,100763.34
2022-09-10T21:21:48.666Z,100770.38
2022-09-10T21:24:19.550Z,100771.50
2022-09-10T21:26:47.441Z,100777.19
2022-09-10T21:29:20.313Z,100771.03
2022-09-10T21:31:50.540Z,100774.09
2022-09-10T21:34:19.284Z,100768.75
2022-09-10T21:36:47.315Z,100768.28
2022-09-10T21:39:17.473Z,100767.50
2022-09-10T21:41:47.995Z,100771.97
2022-09-10T21:44:19.797Z,100781.06
2022-09-10T21:46:49.565Z,100777.34
2022-09-10T21:49:18.389Z,100784.91
2022-09-10T21:51:46.701Z,100781.94
2022-09-10T21:54:18.716Z,100783.69
2022-09-10T21:56:48.938Z,100782.38
2022-09-10T21:59:18.758Z,100788.47
2022-09-10T22:01:47.628Z,100796.38
2022-09-10T22:04:21.504Z,100789.53
2022-09-10T22:06:51.056Z,100795.19
2022-09-10T22:09:19.827Z,100799.72
2022-09-10T22:11:52.029Z,100795.09
2022-09-10T22:14:24.138Z,100802.81
2022-09-10T22:16:53.322Z,100801.88
2022-09-10T22:19:24.502Z,100803.50
2022-09-10T22:21:54.138Z,100804.25
2022-09-10T22:24:22.304Z,100807.41
2022-09-10T22:26:50.311Z,100802.84
2022-09-10T22:29:21.571Z,100805.63
2022-09-10T22:31:50.087Z,100797.13
2022-09-10T22:34:19.639Z,100796.22
2022-09-10T22:36:49.461Z,100792.72
2022-09-10T22:39:20.819Z,100799.97
2022-09-10T22:41:50.467Z,100808.81
2022-09-10T22:44:19.850Z,100802.56
2022-09-10T22:46:49.089Z,100810.00
2022-09-10T22:49:17.920Z,100809.63
2022-09-10T22:51:46.200Z,100804.78
2022-09-10T22:54:14.510Z,100803.84
2022-09-10T22:56:43.103Z,100809.72
2022-09-10T22:59:14.633Z,100816.22
2022-09-10T23:01:47.406Z,100822.72
2022-09-10T23:04:17.276Z,100827.38
2022-09-10T23:06:45.391Z,100828.34
2022-09-10T23:09:16.359Z,100821.59
2022-09-10T23:11:45.503Z,100828.50
2022-09-10T23:14:17.833Z,100815.78
2022-09-10T23:16:48.670Z,100819.97
2022-09-10T23:19:21.502Z,100828.59
2022-09-10T23:21:52.158Z,100832.50
2022-09-10T23:24:24.119Z,100829.13
2022-09-10T23:26:52.314Z,100834.78
2022-09-10T23:29:20.538Z,100828.59
2022-09-10T23:31:49.826Z,100828.03
2022-09-10T23:34:21.049Z,100828.63
2022-09-10T23:36:50.701Z,100832.13
2022-09-10T23:39:21.194Z,100838.31
2022-09-10T23:41:49.541Z,100833.81
2022-09-10T23:44:18.165Z,100837.41
2022-09-10T23:46:46.229Z,100843.47
2022-09-10T23:49:14.186Z,100843.59
2022-09-10T23:51:43.883Z,100833.88
2022-09-10T23:54:12.761Z,100842.53
2022-09-10T23:56:40.951Z,100837.78
2022-09-10T23:59:09.514Z,100844.09
